sensor_id;sensor_type;location;lat;lon;timestamp;pressure;altitude;pressure_sealevel;temperature;humidity
37824;BME280;23667;43.246;26.576;2022-11-24T00:01:29;98484.78;;;8.82;100.00
37824;BME280;23667;43.246;26.576;2022-11-24T00:03:57;98484.34;;;8.93;100.00
37824;BME280;23667;43.246;26.576;2022-11-24T00:06:23;98489.28;;;8.99;100.00
37824;BME280;23667;43.246;26.576;2022-11-24T00:08:50;98498.09;;;8.96;100.00
37824;BME280;23667;43.246;26.576;2022-11-24T00:11:18;98487.38;;;9.26;100.00
37824;BME280;23667;43.246;26.576;2022-11-24T00:13:44;98490.97;;;9.22;100.00
37824;BME280;23667;43.246;26.576;2022-11-24T00:16:14;98494.50;;;9.21;100.00
37824;BME280;23667;43.246;26.576;2022-11-24T00:18:42;98482.75;;;9.32;100.00
37824;BME280;23667;43.246;26.576;2022-11-24T00:21:08;98488.63;;;9.38;100.00
37824;BME280;23667;43.246;26.576;2022-11-24T00:23:34;98495.72;;;9.54;100.00
37824;BME280;23667;43.246;26.576;2022-11-24T00:26:32;98493.66;;;9.63;100.00
37824;BME280;23667;43.246;26.576;2022-11-24T00:29:00;98483.91;;;9.68;100.00
37824;BME280;23667;43.246;26.576;2022-11-24T00:31:31;98482.41;;;9.40;100.00
37824;BME280;23667;43.246;26.576;2022-11-24T00:34:03;98484.53;;;9.52;100.00
37824;BME280;23667;43.246;26.576;2022-11-24T00:36:31;98491.94;;;9.41;100.00
37824;BME280;23667;43.246;26.576;2022-11-24T00:39:01;98501.63;;;9.38;100.00
37824;BME280;23667;43.246;26.576;2022-11-24T00:41:28;98493.78;;;9.60;100.00
37824;BME280;23667;43.246;26.576;2022-11-24T00:43:54;98498.66;;;9.47;100.00
37824;BME280;23667;43.246;26.576;2022-11-24T00:46:20;98501.88;;;9.52;100.00
37824;BME280;23667;43.246;26.576;2022-11-24T00:48:46;98506.41;;;9.26;100.00
37824;BME280;23667;43.246;26.576;2022-11-24T00:51:14;98507.81;;;9.35;100.00
37824;BME280;23667;43.246;26.576;2022-11-24T00:53:40;98507.56;;;9.41;100.00
37824;BME280;23667;43.246;26.576;2022-11-24T00:56:06;98504.88;;;9.43;100.00
37824;BME280;23667;43.246;26.576;2022-11-24T00:58:32;98508.06;;;9.49;100.00
37824;BME280;23667;43.246;26.576;2022-11-24T01:01:04;98501.50;;;9.61;100.00
37824;BME280;23667;43.246;26.576;2022-11-24T01:03:30;98512.31;;;9.52;100.00
37824;BME280;23667;43.246;26.576;2022-11-24T01:06:01;98501.44;;;9.63;100.00
37824;BME280;23667;43.246;26.576;2022-11-24T01:08:27;98503.94;;;9.66;100.00
37824;BME280;23667;43.246;26.576;2022-11-24T01:10:52;98501.38;;;9.64;100.00
37824;BME280;23667;43.246;26.576;2022-11-24T01:13:18;98509.56;;;9.55;100.00
37824;BME280;23667;43.246;26.576;2022-11-24T01:15:43;98501.88;;;9.52;100.00
37824;BME280;23667;43.246;26.576;2022-11-24T01:18:09;98509.78;;;9.50;100.00
37824;BME280;23667;43.246;26.576;2022-11-24T01:20:35;98499.63;;;9.44;100.00
37824;BME280;23667;43.246;26.576;2022-11-24T01:23:00;98505.16;;;9.57;100.00
37824;BME280;23667;43.246;26.576;2022-11-24T01:25:26;98491.22;;;9.58;100.00
37824;BME280;23667;43.246;26.576;2022-11-24T01:27:51;98501.13;;;9.50;100.00
37824;BME280;23667;43.246;26.576;2022-11-24T01:30:17;98496.81;;;9.69;100.00
37824;BME280;23667;43.246;26.576;2022-11-24T01:32:42;98494.47;;;9.63;100.00
37824;BME280;23667;43.246;26.576;2022-11-24T01:35:08;98492.53;;;9.68;100.00
37824;BME280;23667;43.246;26.576;2022-11-24T01:37:33;98482.66;;;9.76;100.00
37824;BME280;23667;43.246;26.576;2022-11-24T01:39:59;98482.13;;;9.89;100.00
37824;BME280;23667;43.246;26.576;2022-11-24T01:42:24;98484.72;;;9.68;100.00
37824;BME280;23667;43.246;26.576;2022-11-24T01:47:54;98498.66;;;9.47;100.00
37824;BME280;23667;43.246;26.576;2022-11-24T01:50:20;98490.97;;;9.44;100.00
37824;BME280;23667;43.246;26.576;2022-11-24T01:52:50;98495.00;;;9.51;100.00
37824;BME280;23667;43.246;26.576;2022-11-24T01:55:21;98489.63;;;9.55;100.00
37824;BME280;23667;43.246;26.576;2022-11-24T01:57:54;98489.50;;;9.37;100.00
37824;BME280;23667;43.246;26.576;2022-11-24T02:00:22;98495.22;;;9.24;100.00
37824;BME280;23667;43.246;26.576;2022-11-24T02:02:48;98488.13;;;9.28;100.00
37824;BME280;23667;43.246;26.576;2022-11-24T02:05:26;98488.09;;;9.29;100.00
37824;BME280;23667;43.246;26.576;2022-11-24T02:07:54;98486.03;;;9.38;100.00
37824;BME280;23667;43.246;26.576;2022-11-24T02:10:21;98492.66;;;9.45;100.00
37824;BME280;23667;43.246;26.576;2022-11-24T02:12:51;98494.66;;;9.38;100.00
37824;BME280;23667;43.246;26.576;2022-11-24T02:15:19;98487.31;;;9.48;100.00
37824;BME280;23667;43.246;26.576;2022-11-24T02:17:45;98485.19;;;9.15;100.00
37824;BME280;23667;43.246;26.576;2022-11-24T02:20:12;98491.06;;;9.20;100.00
37824;BME280;23667;43.246;26.576;2022-11-24T02:25:38;98493.28;;;9.29;100.00
37824;BME280;23667;43.246;26.576;2022-11-24T02:28:11;98490.25;;;9.18;100.00
37824;BME280;23667;43.246;26.576;2022-11-24T02:30:37;98490.19;;;9.20;100.00
37824;BME280;23667;43.246;26.576;2022-11-24T02:33:02;98493.34;;;9.28;100.00
37824;BME280;23667;43.246;26.576;2022-11-24T02:35:28;98490.47;;;9.34;100.00
37824;BME280;23667;43.246;26.576;2022-11-24T02:37:54;98488.69;;;9.36;100.00
37824;BME280;23667;43.246;26.576;2022-11-24T02:40:22;98484.31;;;9.37;100.00
37824;BME280;23667;43.246;26.576;2022-11-24T02:42:52;98493.75;;;9.39;100.00
37824;BME280;23667;43.246;26.576;2022-11-24T02:45:19;98489.00;;;9.49;100.00
37824;BME280;23667;43.246;26.576;2022-11-24T02:47:45;98491.94;;;9.41;100.00
37824;BME280;23667;43.246;26.576;2022-11-24T02:50:11;98494.84;;;9.33;100.00
37824;BME280;23667;43.246;26.576;2022-11-24T02:52:37;98483.41;;;9.38;100.00
37824;BME280;23667;43.246;26.576;2022-11-24T02:55:02;98482.75;;;9.32;100.00
37824;BME280;23667;43.246;26.576;2022-11-24T02:57:28;98479.91;;;9.39;100.00
37824;BME280;23667;43.246;26.576;2022-11-24T02:59:53;98485.19;;;9.15;100.00
37824;BME280;23667;43.246;26.576;2022-11-24T03:02:19;98487.13;;;9.32;100.00
37824;BME280;23667;43.246;26.576;2022-11-24T03:04:45;98482.88;;;9.29;100.00
37824;BME280;23667;43.246;26.576;2022-11-24T03:07:10;98473.69;;;9.21;100.00
37824;BME280;23667;43.246;26.576;2022-11-24T03:09:36;98477.06;;;9.23;100.00
37824;BME280;23667;43.246;26.576;2022-11-24T03:12:01;98475.91;;;9.08;100.00
37824;BME280;23667;43.246;26.576;2022-11-24T03:14:26;98489.31;;;9.21;100.00
37824;BME280;23667;43.246;26.576;2022-11-24T03:16:52;98483.56;;;9.13;100.00
37824;BME280;23667;43.246;26.576;2022-11-24T03:19:17;98484.47;;;8.89;100.00
37824;BME280;23667;43.246;26.576;2022-11-24T03:21:43;98489.00;;;8.84;100.00
37824;BME280;23667;43.246;26.576;2022-11-24T03:24:08;98489.25;;;9.00;100.00
37824;BME280;23667;43.246;26.576;2022-11-24T03:26:34;98491.78;;;9.02;100.00
37824;BME280;23667;43.246;26.576;2022-11-24T03:28:59;98494.84;;;8.89;100.00
37824;BME280;23667;43.246;26.576;2022-11-24T03:31:25;98491.53;;;9.08;100.00
37824;BME280;23667;43.246;26.576;2022-11-24T03:33:50;98497.03;;;9.22;100.00
37824;BME280;23667;43.246;26.576;2022-11-24T03:36:16;98493.22;;;9.31;100.00
37824;BME280;23667;43.246;26.576;2022-11-24T03:38:42;98497.41;;;9.13;100.00
37824;BME280;23667;43.246;26.576;2022-11-24T03:41:08;98503.53;;;9.12;100.00
37824;BME280;23667;43.246;26.576;2022-11-24T03:43:33;98504.25;;;9.16;100.00
37824;BME280;23667;43.246;26.576;2022-11-24T03:45:59;98510.19;;;8.97;100.00
37824;BME280;23667;43.246;26.576;2022-11-24T03:48:24;98515.84;;;9.07;100.00
37824;BME280;23667;43.246;26.576;2022-11-24T03:50:59;98511.94;;;8.97;100.00
37824;BME280;23667;43.246;26.576;2022-11-24T03:53:26;98514.03;;;8.87;100.00
37824;BME280;23667;43.246;26.576;2022-11-24T03:55:52;98520.97;;;8.86;100.00
37824;BME280;23667;43.246;26.576;2022-11-24T03:58:18;98522.69;;;8.87;100.00
37824;BME280;23667;43.246;26.576;2022-11-24T04:00:44;98526.91;;;8.90;100.00
37824;BME280;23667;43.246;26.576;2022-11-24T04:03:10;98528.19;;;9.02;100.00
37824;BME280;23667;43.246;26.576;2022-11-24T04:05:35;98529.69;;;8.85;100.00
37824;BME280;23667;43.246;26.576;2022-11-24T04:08:02;98532.31;;;8.62;100.00
37824;BME280;23667;43.246;26.576;2022-11-24T04:10:30;98532.75;;;8.73;100.00
37824;BME280;23667;43.246;26.576;2022-11-24T04:12:56;98537.13;;;8.73;100.00
37824;BME280;23667;43.246;26.576;2022-11-24T04:15:22;98532.81;;;8.72;100.00
37824;BME280;23667;43.246;26.576;2022-11-24T04:17:48;98534.72;;;8.66;100.00
37824;BME280;23667;43.246;26.576;2022-11-24T04:20:15;98538.97;;;8.69;100.00
37824;BME280;23667;43.246;26.576;2022-11-24T04:22:41;98544.44;;;8.85;100.00
37824;BME280;23667;43.246;26.576;2022-11-24T04:25:08;98549.91;;;9.01;100.00
37824;BME280;23667;43.246;26.576;2022-11-24T04:27:35;98553.88;;;8.87;100.00
37824;BME280;23667;43.246;26.576;2022-11-24T04:30:01;98547.06;;;9.07;100.00
37824;BME280;23667;43.246;26.576;2022-11-24T04:32:27;98550.69;;;9.03;100.00
37824;BME280;23667;43.246;26.576;2022-11-24T04:34:52;98552.84;;;9.14;100.00
37824;BME280;23667;43.246;26.576;2022-11-24T04:37:18;98548.81;;;9.06;100.00
37824;BME280;23667;43.246;26.576;2022-11-24T04:39:43;98561.97;;;8.80;100.00
37824;BME280;23667;43.246;26.576;2022-11-24T04:42:10;98563.16;;;8.71;100.00
37824;BME280;23667;43.246;26.576;2022-11-24T04:44:36;98572.00;;;8.89;100.00
37824;BME280;23667;43.246;26.576;2022-11-24T04:47:01;98574.97;;;8.80;100.00
37824;BME280;23667;43.246;26.576;2022-11-24T04:49:27;98580.22;;;8.55;100.00
37824;BME280;23667;43.246;26.576;2022-11-24T04:51:52;98590.41;;;8.61;100.00
37824;BME280;23667;43.246;26.576;2022-11-24T04:54:18;98585.00;;;8.65;100.00
37824;BME280;23667;43.246;26.576;2022-11-24T04:56:43;98583.16;;;8.69;100.00
37824;BME280;23667;43.246;26.576;2022-11-24T04:59:14;98584.78;;;8.72;100.00
37824;BME280;23667;43.246;26.576;2022-11-24T05:01:41;98598.47;;;8.77;100.00
37824;BME280;23667;43.246;26.576;2022-11-24T05:04:09;98599.25;;;8.55;100.00
37824;BME280;23667;43.246;26.576;2022-11-24T05:06:35;98596.94;;;8.71;100.00
37824;BME280;23667;43.246;26.576;2022-11-24T05:09:01;98605.47;;;8.75;100.00
37824;BME280;23667;43.246;26.576;2022-11-24T05:11:26;98613.38;;;8.72;100.00
37824;BME280;23667;43.246;26.576;2022-11-24T05:13:52;98617.16;;;8.86;100.00
37824;BME280;23667;43.246;26.576;2022-11-24T05:16:17;98621.06;;;8.75;100.00
37824;BME280;23667;43.246;26.576;2022-11-24T05:18:43;98613.75;;;9.08;100.00
37824;BME280;23667;43.246;26.576;2022-11-24T05:21:08;98614.91;;;8.77;100.00
37824;BME280;23667;43.246;26.576;2022-11-24T05:23:34;98621.50;;;8.87;100.00
37824;BME280;23667;43.246;26.576;2022-11-24T05:26:00;98616.06;;;8.94;100.00
37824;BME280;23667;43.246;26.576;2022-11-24T05:28:26;98619.44;;;8.96;100.00
37824;BME280;23667;43.246;26.576;2022-11-24T05:30:52;98616.06;;;8.94;100.00
37824;BME280;23667;43.246;26.576;2022-11-24T05:33:18;98621.47;;;9.11;100.00
37824;BME280;23667;43.246;26.576;2022-11-24T05:35:50;98625.16;;;9.05;100.00
37824;BME280;23667;43.246;26.576;2022-11-24T05:38:16;98637.19;;;8.84;100.00
37824;BME280;23667;43.246;26.576;2022-11-24T05:40:42;98644.00;;;8.87;100.00
37824;BME280;23667;43.246;26.576;2022-11-24T05:43:15;98645.84;;;9.08;100.00
37824;BME280;23667;43.246;26.576;2022-11-24T05:45:41;98647.28;;;9.16;100.00
37824;BME280;23667;43.246;26.576;2022-11-24T05:48:09;98647.75;;;9.03;100.00
37824;BME280;23667;43.246;26.576;2022-11-24T05:50:36;98654.72;;;9.03;100.00
37824;BME280;23667;43.246;26.576;2022-11-24T05:53:07;98654.50;;;9.09;100.00
37824;BME280;23667;43.246;26.576;2022-11-24T05:55:33;98664.16;;;9.05;100.00
37824;BME280;23667;43.246;26.576;2022-11-24T05:58:01;98664.25;;;8.79;100.00
37824;BME280;23667;43.246;26.576;2022-11-24T06:00:27;98681.81;;;8.72;100.00
37824;BME280;23667;43.246;26.576;2022-11-24T06:02:53;98681.16;;;8.67;100.00
37824;BME280;23667;43.246;26.576;2022-11-24T06:05:19;98685.91;;;8.54;100.00
37824;BME280;23667;43.246;26.576;2022-11-24T06:07:44;98690.88;;;8.85;100.00
37824;BME280;23667;43.246;26.576;2022-11-24T06:10:10;98686.03;;;9.00;100.00
37824;BME280;23667;43.246;26.576;2022-11-24T06:12:35;98695.88;;;9.15;100.00
37824;BME280;23667;43.246;26.576;2022-11-24T06:15:01;98693.72;;;9.03;100.00
37824;BME280;23667;43.246;26.576;2022-11-24T06:17:27;98700.38;;;9.10;100.00
37824;BME280;23667;43.246;26.576;2022-11-24T06:19:52;98700.69;;;9.02;100.00
37824;BME280;23667;43.246;26.576;2022-11-24T06:22:18;98699.81;;;9.02;100.00
37824;BME280;23667;43.246;26.576;2022-11-24T06:24:44;98702.63;;;8.96;100.00
37824;BME280;23667;43.246;26.576;2022-11-24T06:27:11;98705.00;;;9.02;100.00
37824;BME280;23667;43.246;26.576;2022-11-24T06:29:37;98701.78;;;8.95;100.00
37824;BME280;23667;43.246;26.576;2022-11-24T06:32:02;98698.97;;;9.01;100.00
37824;BME280;23667;43.246;26.576;2022-11-24T06:34:28;98702.53;;;8.99;100.00
37824;BME280;23667;43.246;26.576;2022-11-24T06:36:54;98713.91;;;9.20;100.00
37824;BME280;23667;43.246;26.576;2022-11-24T06:39:19;98701.22;;;9.10;100.00
37824;BME280;23667;43.246;26.576;2022-11-24T06:41:44;98703.91;;;9.09;100.00
37824;BME280;23667;43.246;26.576;2022-11-24T06:44:10;98705.56;;;9.11;100.00
37824;BME280;23667;43.246;26.576;2022-11-24T06:46:36;98706.06;;;9.21;100.00
37824;BME280;23667;43.246;26.576;2022-11-24T06:49:01;98711.84;;;9.29;100.00
37824;BME280;23667;43.246;26.576;2022-11-24T06:51:27;98715.72;;;9.18;100.00
37824;BME280;23667;43.246;26.576;2022-11-24T06:53:53;98718.94;;;9.24;100.00
37824;BME280;23667;43.246;26.576;2022-11-24T06:56:20;98723.31;;;9.47;100.00
37824;BME280;23667;43.246;26.576;2022-11-24T06:58:47;98722.16;;;9.54;100.00
37824;BME280;23667;43.246;26.576;2022-11-24T07:01:20;98721.69;;;9.43;100.00
37824;BME280;23667;43.246;26.576;2022-11-24T07:03:46;98725.28;;;9.41;100.00
37824;BME280;23667;43.246;26.576;2022-11-24T07:06:12;98725.34;;;9.39;100.00
37824;BME280;23667;43.246;26.576;2022-11-24T07:08:38;98719.28;;;9.39;100.00
37824;BME280;23667;43.246;26.576;2022-11-24T07:11:05;98721.44;;;9.73;100.00
37824;BME280;23667;43.246;26.576;2022-11-24T07:13:30;98722.06;;;9.79;100.00
37824;BME280;23667;43.246;26.576;2022-11-24T07:15:56;98724.41;;;9.64;100.00
37824;BME280;23667;43.246;26.576;2022-11-24T07:18:21;98729.69;;;10.06;100.00
37824;BME280;23667;43.246;26.576;2022-11-24T07:20:50;98727.28;;;9.79;100.00
37824;BME280;23667;43.246;26.576;2022-11-24T07:23:15;98728.94;;;10.02;100.00
37824;BME280;23667;43.246;26.576;2022-11-24T07:25:41;98731.53;;;9.82;100.00
37824;BME280;23667;43.246;26.576;2022-11-24T07:28:06;98730.06;;;9.97;100.00
37824;BME280;23667;43.246;26.576;2022-11-24T07:30:32;98726.78;;;9.92;100.00
37824;BME280;23667;43.246;26.576;2022-11-24T07:33:01;98727.63;;;10.36;100.00
37824;BME280;23667;43.246;26.576;2022-11-24T07:35:28;98731.69;;;10.43;100.00
37824;BME280;23667;43.246;26.576;2022-11-24T07:37:57;98726.34;;;10.67;100.00
37824;BME280;23667;43.246;26.576;2022-11-24T07:40:23;98725.25;;;10.73;100.00
37824;BME280;23667;43.246;26.576;2022-11-24T07:42:48;98725.72;;;10.62;100.00
37824;BME280;23667;43.246;26.576;2022-11-24T07:45:14;98717.66;;;10.46;100.00
37824;BME280;23667;43.246;26.576;2022-11-24T07:47:40;98713.69;;;10.37;100.00
37824;BME280;23667;43.246;26.576;2022-11-24T07:50:07;98718.88;;;10.59;100.00
37824;BME280;23667;43.246;26.576;2022-11-24T07:52:34;98719.03;;;10.75;100.00
37824;BME280;23667;43.246;26.576;2022-11-24T07:55:00;98713.41;;;11.05;100.00
37824;BME280;23667;43.246;26.576;2022-11-24T07:57:28;98712.09;;;11.34;100.00
37824;BME280;23667;43.246;26.576;2022-11-24T07:59:55;98710.56;;;10.90;100.00
37824;BME280;23667;43.246;26.576;2022-11-24T08:02:20;98715.59;;;10.95;100.00
37824;BME280;23667;43.246;26.576;2022-11-24T08:04:46;98719.25;;;10.50;100.00
37824;BME280;23667;43.246;26.576;2022-11-24T08:07:11;98719.56;;;10.20;100.00
37824;BME280;23667;43.246;26.576;2022-11-24T08:09:37;98724.16;;;10.14;100.00
37824;BME280;23667;43.246;26.576;2022-11-24T08:12:02;98730.09;;;10.17;100.00
37824;BME280;23667;43.246;26.576;2022-11-24T08:14:28;98729.19;;;9.74;100.00
37824;BME280;23667;43.246;26.576;2022-11-24T08:16:53;98732.56;;;9.54;100.00
37824;BME280;23667;43.246;26.576;2022-11-24T08:19:20;98735.38;;;9.72;100.00
37824;BME280;23667;43.246;26.576;2022-11-24T08:21:46;98736.84;;;9.79;100.00
37824;BME280;23667;43.246;26.576;2022-11-24T08:24:12;98735.00;;;9.36;100.00
37824;BME280;23667;43.246;26.576;2022-11-24T08:26:40;98741.88;;;9.38;100.00
37824;BME280;23667;43.246;26.576;2022-11-24T08:29:06;98741.44;;;9.25;100.00
37824;BME280;23667;43.246;26.576;2022-11-24T08:31:31;98748.69;;;9.17;100.00
37824;BME280;23667;43.246;26.576;2022-11-24T08:33:58;98744.38;;;9.16;100.00
37824;BME280;23667;43.246;26.576;2022-11-24T08:36:24;98751.34;;;9.16;100.00
37824;BME280;23667;43.246;26.576;2022-11-24T08:38:53;98754.91;;;9.13;100.00
37824;BME280;23667;43.246;26.576;2022-11-24T08:41:19;98759.78;;;9.22;100.00
37824;BME280;23667;43.246;26.576;2022-11-24T08:43:45;98764.16;;;8.97;100.00
37824;BME280;23667;43.246;26.576;2022-11-24T08:46:13;98770.00;;;9.03;100.00
37824;BME280;23667;43.246;26.576;2022-11-24T08:48:41;98762.81;;;9.10;100.00
37824;BME280;23667;43.246;26.576;2022-11-24T08:51:10;98761.66;;;9.42;100.00
37824;BME280;23667;43.246;26.576;2022-11-24T08:53:35;98760.22;;;9.33;100.00
37824;BME280;23667;43.246;26.576;2022-11-24T08:56:02;98770.88;;;9.74;100.00
37824;BME280;23667;43.246;26.576;2022-11-24T08:58:28;98760.78;;;9.89;100.00
37824;BME280;23667;43.246;26.576;2022-11-24T09:00:54;98755.69;;;10.08;100.00
37824;BME280;23667;43.246;26.576;2022-11-24T09:03:19;98767.91;;;10.06;100.00
37824;BME280;23667;43.246;26.576;2022-11-24T09:05:45;98766.50;;;9.75;100.00
37824;BME280;23667;43.246;26.576;2022-11-24T09:08:10;98776.09;;;9.96;100.00
37824;BME280;23667;43.246;26.576;2022-11-24T09:10:36;98775.59;;;9.87;100.00
37824;BME280;23667;43.246;26.576;2022-11-24T09:13:02;98774.69;;;9.88;100.00
37824;BME280;23667;43.246;26.576;2022-11-24T09:15:27;98771.50;;;10.03;100.00
37824;BME280;23667;43.246;26.576;2022-11-24T09:17:52;98770.28;;;9.90;100.00
37824;BME280;23667;43.246;26.576;2022-11-24T09:20:18;98777.28;;;9.88;100.00
37824;BME280;23667;43.246;26.576;2022-11-24T09:22:43;98782.00;;;9.54;100.00
37824;BME280;23667;43.246;26.576;2022-11-24T09:25:12;98789.66;;;9.59;100.00
37824;BME280;23667;43.246;26.576;2022-11-24T09:27:37;98789.66;;;9.83;100.00
37824;BME280;23667;43.246;26.576;2022-11-24T09:30:03;98786.88;;;9.40;100.00
37824;BME280;23667;43.246;26.576;2022-11-24T09:32:29;98791.31;;;9.62;100.00
37824;BME280;23667;43.246;26.576;2022-11-24T09:34:55;98791.22;;;9.40;100.00
37824;BME280;23667;43.246;26.576;2022-11-24T09:37:20;98791.84;;;9.46;100.00
37824;BME280;23667;43.246;26.576;2022-11-24T09:39:46;98786.22;;;9.82;100.00
37824;BME280;23667;43.246;26.576;2022-11-24T09:42:32;98793.72;;;9.90;100.00
37824;BME280;23667;43.246;26.576;2022-11-24T09:47:45;98796.06;;;9.96;100.00
37824;BME280;23667;43.246;26.576;2022-11-24T09:50:19;98790.13;;;9.92;100.00
37824;BME280;23667;43.246;26.576;2022-11-24T09:56:32;98785.81;;;10.15;100.00
37824;BME280;23667;43.246;26.576;2022-11-24T09:59:04;98790.47;;;10.29;100.00
37824;BME280;23667;43.246;26.576;2022-11-24T10:01:36;98796.28;;;10.13;100.00
37824;BME280;23667;43.246;26.576;2022-11-24T10:04:15;98795.66;;;10.30;100.00
37824;BME280;23667;43.246;26.576;2022-11-24T10:20:32;98813.41;;;9.26;100.00
37824;BME280;23667;43.246;26.576;2022-11-24T10:28:14;98826.94;;;8.86;100.00
37824;BME280;23667;43.246;26.576;2022-11-24T10:30:40;98825.97;;;8.88;100.00
37824;BME280;23667;43.246;26.576;2022-11-24T10:36:07;98821.56;;;9.41;100.00
37824;BME280;23667;43.246;26.576;2022-11-24T10:38:41;98815.16;;;9.01;100.00
37824;BME280;23667;43.246;26.576;2022-11-24T10:41:22;98815.97;;;9.03;100.00
37824;BME280;23667;43.246;26.576;2022-11-24T10:43:50;98819.19;;;9.09;100.00
37824;BME280;23667;43.246;26.576;2022-11-24T10:46:24;98831.19;;;8.62;100.00
37824;BME280;23667;43.246;26.576;2022-11-24T10:48:55;98835.31;;;8.94;100.00
37824;BME280;23667;43.246;26.576;2022-11-24T10:54:25;98834.41;;;8.70;100.00
37824;BME280;23667;43.246;26.576;2022-11-24T10:56:52;98833.97;;;8.82;100.00
37824;BME280;23667;43.246;26.576;2022-11-24T10:59:34;98823.66;;;9.06;100.00
37824;BME280;23667;43.246;26.576;2022-11-24T11:02:01;98826.31;;;8.78;100.00
37824;BME280;23667;43.246;26.576;2022-11-24T11:04:32;98814.84;;;9.10;100.00
37824;BME280;23667;43.246;26.576;2022-11-24T11:07:20;98810.59;;;9.32;100.00
37824;BME280;23667;43.246;26.576;2022-11-24T11:09:47;98813.25;;;9.78;100.00
37824;BME280;23667;43.246;26.576;2022-11-24T11:12:22;98800.69;;;9.66;100.00
37824;BME280;23667;43.246;26.576;2022-11-24T11:14:51;98811.81;;;9.93;100.00
37824;BME280;23667;43.246;26.576;2022-11-24T11:17:37;98811.94;;;9.90;100.00
37824;BME280;23667;43.246;26.576;2022-11-24T11:20:14;98815.69;;;9.36;100.00
37824;BME280;23667;43.246;26.576;2022-11-24T11:22:42;98813.06;;;9.36;100.00
37824;BME280;23667;43.246;26.576;2022-11-24T11:27:35;98809.34;;;9.43;100.00
37824;BME280;23667;43.246;26.576;2022-11-24T11:32:56;98811.91;;;9.19;100.00
37824;BME280;23667;43.246;26.576;2022-11-24T11:35:27;98815.25;;;9.23;100.00
37824;BME280;23667;43.246;26.576;2022-11-24T11:37:59;98803.38;;;9.16;100.00
37824;BME280;23667;43.246;26.576;2022-11-24T11:40:30;98812.63;;;8.99;100.00
37824;BME280;23667;43.246;26.576;2022-11-24T11:43:03;98815.94;;;8.78;100.00
37824;BME280;23667;43.246;26.576;2022-11-24T11:45:35;98815.13;;;9.02;100.00
37824;BME280;23667;43.246;26.576;2022-11-24T11:50:38;98817.69;;;8.77;100.00
37824;BME280;23667;43.246;26.576;2022-11-24T12:20:03;98811.13;;;9.17;100.00
37824;BME280;23667;43.246;26.576;2022-11-24T12:25:33;98806.75;;;8.93;100.00
37824;BME280;23667;43.246;26.576;2022-11-24T12:30:45;98814.50;;;9.19;100.00
37824;BME280;23667;43.246;26.576;2022-11-24T12:37:10;98817.19;;;9.18;100.00
37824;BME280;23667;43.246;26.576;2022-11-24T12:39:24;98824.28;;;9.61;100.00
37824;BME280;23667;43.246;26.576;2022-11-24T12:44:38;98811.69;;;9.96;100.00
37824;BME280;23667;43.246;26.576;2022-11-24T12:47:16;98808.75;;;9.82;100.00
37824;BME280;23667;43.246;26.576;2022-11-24T12:50:07;98820.22;;;9.77;100.00
37824;BME280;23667;43.246;26.576;2022-11-24T12:52:39;98814.91;;;9.57;100.00
37824;BME280;23667;43.246;26.576;2022-11-24T12:55:16;98812.75;;;9.45;100.00
37824;BME280;23667;43.246;26.576;2022-11-24T12:57:51;98805.75;;;9.22;100.00
37824;BME280;23667;43.246;26.576;2022-11-24T13:00:22;98823.28;;;8.92;100.00
37824;BME280;23667;43.246;26.576;2022-11-24T13:06:36;98821.53;;;8.65;100.00
37824;BME280;23667;43.246;26.576;2022-11-24T13:08:42;98820.94;;;8.57;100.00
37824;BME280;23667;43.246;26.576;2022-11-24T13:16:22;98815.34;;;8.70;100.00
37824;BME280;23667;43.246;26.576;2022-11-24T13:18:54;98808.50;;;8.67;100.00
37824;BME280;23667;43.246;26.576;2022-11-24T13:21:45;98812.38;;;8.80;100.00
37824;BME280;23667;43.246;26.576;2022-11-24T13:42:13;98816.63;;;8.56;100.00
37824;BME280;23667;43.246;26.576;2022-11-24T13:44:59;98811.16;;;8.37;100.00
37824;BME280;23667;43.246;26.576;2022-11-24T13:50:10;98818.72;;;8.72;100.00
37824;BME280;23667;43.246;26.576;2022-11-24T13:57:46;98815.28;;;8.45;100.00
37824;BME280;23667;43.246;26.576;2022-11-24T14:00:21;98819.00;;;8.36;100.00
37824;BME280;23667;43.246;26.576;2022-11-24T14:02:49;98828.28;;;8.45;100.00
37824;BME280;23667;43.246;26.576;2022-11-24T14:05:18;98837.13;;;8.39;100.00
37824;BME280;23667;43.246;26.576;2022-11-24T14:07:48;98828.16;;;8.49;100.00
37824;BME280;23667;43.246;26.576;2022-11-24T14:10:20;98835.88;;;8.77;100.00
37824;BME280;23667;43.246;26.576;2022-11-24T14:12:46;98839.78;;;8.64;100.00
37824;BME280;23667;43.246;26.576;2022-11-24T14:15:26;98840.88;;;8.57;100.00
37824;BME280;23667;43.246;26.576;2022-11-24T14:17:53;98843.38;;;8.86;100.00
37824;BME280;23667;43.246;26.576;2022-11-24T14:20:25;98843.03;;;8.14;100.00
37824;BME280;23667;43.246;26.576;2022-11-24T14:22:51;98846.81;;;8.32;100.00
37824;BME280;23667;43.246;26.576;2022-11-24T14:25:38;98847.31;;;8.45;100.00
37824;BME280;23667;43.246;26.576;2022-11-24T14:28:20;98845.97;;;8.32;100.00
37824;BME280;23667;43.246;26.576;2022-11-24T14:30:47;98851.06;;;8.07;100.00
37824;BME280;23667;43.246;26.576;2022-11-24T14:33:12;98858.31;;;7.95;100.00
37824;BME280;23667;43.246;26.576;2022-11-24T14:35:45;98849.31;;;7.78;100.00
37824;BME280;23667;43.246;26.576;2022-11-24T14:38:12;98852.78;;;7.78;100.00
37824;BME280;23667;43.246;26.576;2022-11-24T14:40:47;98860.31;;;7.87;100.00
37824;BME280;23667;43.246;26.576;2022-11-24T14:43:26;98858.22;;;8.28;100.00
37824;BME280;23667;43.246;26.576;2022-11-24T14:48:32;98852.50;;;8.45;100.00
37824;BME280;23667;43.246;26.576;2022-11-24T14:51:29;98861.25;;;8.13;100.00
37824;BME280;23667;43.246;26.576;2022-11-24T14:54:01;98876.16;;;8.08;100.00
37824;BME280;23667;43.246;26.576;2022-11-24T14:58:58;98882.03;;;8.13;100.00